Time;durP1;ratioP1;P1;durP2;ratioP2;P2;SDS_P1;SDS_P2;PMS_P1;PMS_P2;Temp;Humidity;BMP_temperature;BMP_pressure;BME280_temperature;BME280_humidity;BME280_pressure;Samples;Min_cycle;Max_cycle;Signal;HPM_P1;HPM_P2
2023/01/10 00:01:18;;;;;;;22.40;5.43;;;;;;;;;;5115476;28;20024;-70
2023/01/10 00:03:44;;;;;;;19.00;5.03;;;;;;;;;;5115268;28;20035;-70
2023/01/10 00:06:10;;;;;;;13.40;3.20;;;;;;;;;;5115390;28;20506;-70
2023/01/10 00:08:37;;;;;;;20.85;4.30;;;;;;;;;;5115819;28;20023;-70
2023/01/10 00:13:22;;;;;;;10.77;2.17;;;;;;;;;;5115412;28;20036;-71
2023/01/10 00:13:52;;;;;;;14.60;2.50;;;;;;;;;;5115567;28;20028;-70
2023/01/10 00:16:18;;;;;;;20.00;3.25;;;;;;;;;;5115307;28;20476;-71
2023/01/10 00:18:45;;;;;;;14.98;3.35;;;;;;;;;;5114281;28;20031;-71
2023/01/10 00:21:13;;;;;;;15.93;3.72;;;;;;;;;;5115157;28;20034;-70
2023/01/10 00:23:40;;;;;;;14.65;4.20;;;;;;;;;;5115434;28;20024;-70
2023/01/10 00:26:06;;;;;;;17.88;5.00;;;;;;;;;;5115008;28;20050;-70
2023/01/10 00:28:33;;;;;;;26.65;8.43;;;;;;;;;;5115187;28;20019;-71
2023/01/10 00:31:03;;;;;;;17.30;4.50;;;;;;;;;;5114848;28;20034;-70
2023/01/10 00:33:30;;;;;;;20.98;5.43;;;;;;;;;;5114862;28;20022;-71
2023/01/10 00:35:57;;;;;;;20.23;5.13;;;;;;;;;;5114852;28;20027;-70
2023/01/10 00:38:23;;;;;;;18.98;5.45;;;;;;;;;;5114928;28;20033;-70
2023/01/10 00:40:49;;;;;;;20.73;6.38;;;;;;;;;;5114645;28;20220;-70
2023/01/10 00:46:01;;;;;;;19.13;4.80;;;;;;;;;;5114663;28;20020;-71
2023/01/10 00:48:28;;;;;;;17.80;4.70;;;;;;;;;;5114484;28;20027;-70
2023/01/10 00:50:54;;;;;;;14.55;3.70;;;;;;;;;;5114523;28;20419;-71
2023/01/10 00:53:21;;;;;;;15.23;3.83;;;;;;;;;;5114456;28;20026;-70
2023/01/10 00:55:48;;;;;;;15.00;3.35;;;;;;;;;;5114830;28;20031;-70
2023/01/10 00:58:15;;;;;;;21.63;4.82;;;;;;;;;;5114310;28;20026;-71
2023/01/10 01:00:45;;;;;;;15.93;4.15;;;;;;;;;;5114000;28;20028;-71
2023/01/10 01:03:11;;;;;;;16.38;4.97;;;;;;;;;;5114248;28;20476;-70
2023/01/10 01:05:42;;;;;;;13.98;3.00;;;;;;;;;;5114458;28;20028;-70
2023/01/10 01:08:10;;;;;;;12.25;2.28;;;;;;;;;;5114573;28;20024;-70
2023/01/10 01:10:36;;;;;;;16.00;2.65;;;;;;;;;;5114111;28;20047;-70
2023/01/10 01:13:10;;;;;;;14.18;2.03;;;;;;;;;;5113958;28;20410;-71
2023/01/10 01:15:37;;;;;;;12.85;3.08;;;;;;;;;;5114024;28;20026;-70
2023/01/10 01:18:03;;;;;;;8.98;2.00;;;;;;;;;;5114309;28;20020;-71
2023/01/10 01:20:30;;;;;;;15.23;5.05;;;;;;;;;;5114218;28;20031;-71
2023/01/10 01:22:56;;;;;;;24.65;7.90;;;;;;;;;;5113979;28;20030;-70
2023/01/10 01:25:22;;;;;;;17.30;5.53;;;;;;;;;;5113768;28;20020;-71
2023/01/10 01:27:49;;;;;;;18.92;5.65;;;;;;;;;;5095775;28;20026;-71
2023/01/10 01:30:16;;;;;;;13.18;2.65;;;;;;;;;;5113067;28;20038;-71
2023/01/10 01:32:42;;;;;;;13.98;2.28;;;;;;;;;;5113624;28;20024;-70
2023/01/10 01:35:12;;;;;;;10.85;2.70;;;;;;;;;;5113624;28;20391;-70
2023/01/10 01:37:38;;;;;;;9.55;1.40;;;;;;;;;;5113932;28;20028;-70
2023/01/10 01:40:05;;;;;;;7.15;1.65;;;;;;;;;;5113322;28;20059;-71
2023/01/10 01:42:32;;;;;;;6.70;1.30;;;;;;;;;;5113740;28;20038;-70
2023/01/10 01:45:07;;;;;;;4.97;1.10;;;;;;;;;;5113148;28;20027;-71
2023/01/10 01:47:44;;;;;;;6.38;1.08;;;;;;;;;;5113480;28;20011;-70
2023/01/10 01:50:31;;;;;;;5.25;1.10;;;;;;;;;;5113386;28;20040;-71
2023/01/10 01:52:58;;;;;;;10.48;0.80;;;;;;;;;;5050466;28;20029;-70
2023/01/10 01:55:25;;;;;;;4.28;0.73;;;;;;;;;;5050617;28;20044;-70
2023/01/10 01:57:53;;;;;;;6.43;0.88;;;;;;;;;;5033992;28;20440;-70
2023/01/10 02:00:20;;;;;;;5.57;0.95;;;;;;;;;;5050095;28;20531;-71
2023/01/10 02:02:50;;;;;;;4.57;0.95;;;;;;;;;;5050408;28;20033;-73
2023/01/10 02:05:18;;;;;;;4.47;0.85;;;;;;;;;;5050456;28;20584;-73
2023/01/10 02:07:45;;;;;;;5.47;1.13;;;;;;;;;;5050423;28;20401;-73
2023/01/10 02:10:27;;;;;;;2.88;0.60;;;;;;;;;;5050226;28;20480;-73
2023/01/10 02:12:55;;;;;;;4.90;1.23;;;;;;;;;;5050106;28;20029;-73
2023/01/10 02:15:22;;;;;;;9.50;0.93;;;;;;;;;;5050378;28;20055;-73
2023/01/10 02:17:49;;;;;;;5.18;1.27;;;;;;;;;;5050208;28;20041;-72
2023/01/10 02:20:16;;;;;;;6.63;2.20;;;;;;;;;;5050199;28;20045;-73
2023/01/10 02:22:58;;;;;;;6.80;2.28;;;;;;;;;;5050194;28;20139;-73
2023/01/10 02:25:43;;;;;;;6.65;2.83;;;;;;;;;;5049880;28;20032;-74
2023/01/10 02:28:09;;;;;;;5.93;2.53;;;;;;;;;;5049521;28;20029;-70
2023/01/10 02:30:42;;;;;;;8.52;3.75;;;;;;;;;;5080981;28;20117;-70
2023/01/10 02:33:13;;;;;;;12.68;4.80;;;;;;;;;;5092275;28;20024;-70
2023/01/10 02:35:50;;;;;;;6.63;3.10;;;;;;;;;;5092285;28;20020;-70
2023/01/10 02:38:24;;;;;;;6.90;2.40;;;;;;;;;;5092216;28;20503;-70
2023/01/10 02:40:59;;;;;;;6.00;1.52;;;;;;;;;;5092147;28;20055;-71
2023/01/10 02:43:37;;;;;;;4.13;1.73;;;;;;;;;;5091525;28;20496;-70
2023/01/10 02:46:07;;;;;;;7.32;3.08;;;;;;;;;;5092235;28;20031;-71
2023/01/10 02:48:33;;;;;;;7.57;2.92;;;;;;;;;;5092502;28;20030;-70
2023/01/10 02:51:18;;;;;;;4.75;1.63;;;;;;;;;;5092075;28;20032;-70
2023/01/10 02:53:48;;;;;;;4.90;2.42;;;;;;;;;;5092015;28;20024;-70
2023/01/10 02:56:39;;;;;;;4.75;2.38;;;;;;;;;;5091696;28;20482;-70
2023/01/10 02:59:05;;;;;;;;;;;;;;;;;;5092568;28;20016;-70
2023/01/10 03:01:34;;;;;;;10.38;3.58;;;;;;;;;;5092020;28;19908;-70
2023/01/10 03:04:01;;;;;;;10.55;3.60;;;;;;;;;;5091932;28;20020;-70
2023/01/10 03:06:34;;;;;;;7.95;2.72;;;;;;;;;;5092376;28;20024;-70
2023/01/10 03:09:03;;;;;;;6.53;2.55;;;;;;;;;;5091914;28;20565;-70
2023/01/10 03:11:38;;;;;;;11.00;3.63;;;;;;;;;;5091690;28;20028;-70
2023/01/10 03:14:08;;;;;;;12.02;2.40;;;;;;;;;;5091910;28;20027;-71
2023/01/10 03:16:35;;;;;;;10.70;3.40;;;;;;;;;;5092163;28;20034;-70
2023/01/10 03:19:07;;;;;;;17.42;6.22;;;;;;;;;;5092184;28;20102;-70
2023/01/10 03:21:35;;;;;;;11.65;4.18;;;;;;;;;;5091856;28;20033;-70
2023/01/10 03:24:15;;;;;;;9.48;2.20;;;;;;;;;;5092121;28;20032;-70
2023/01/10 03:26:58;;;;;;;15.40;2.97;;;;;;;;;;5111155;28;20018;-71
2023/01/10 03:29:30;;;;;;;10.82;2.42;;;;;;;;;;5112037;28;20441;-70
2023/01/10 03:31:59;;;;;;;15.23;3.13;;;;;;;;;;5112207;28;20039;-70
2023/01/10 03:34:26;;;;;;;11.05;2.28;;;;;;;;;;5112070;28;20383;-70
2023/01/10 03:36:59;;;;;;;9.20;1.88;;;;;;;;;;5112241;28;20024;-71
2023/01/10 03:39:40;;;;;;;6.80;2.28;;;;;;;;;;5111993;28;20073;-71
2023/01/10 03:44:42;;;;;;;6.68;2.00;;;;;;;;;;5112125;28;20031;-70
2023/01/10 03:45:21;;;;;;;12.60;2.33;;;;;;;;;;5049235;28;20414;-70
2023/01/10 03:47:50;;;;;;;9.20;2.88;;;;;;;;;;5049328;28;20043;-70
2023/01/10 03:50:21;;;;;;;10.70;2.08;;;;;;;;;;5049266;28;20044;-70
2023/01/10 03:52:47;;;;;;;7.90;2.25;;;;;;;;;;5049464;28;20040;-71
2023/01/10 03:55:15;;;;;;;7.05;2.20;;;;;;;;;;5051032;28;20497;-70
2023/01/10 03:57:44;;;;;;;7.45;1.50;;;;;;;;;;5036219;28;20132;-70
2023/01/10 04:00:11;;;;;;;5.50;1.73;;;;;;;;;;5052630;28;20106;-70
2023/01/10 04:02:37;;;;;;;7.78;1.75;;;;;;;;;;5052705;28;20040;-70
2023/01/10 04:05:04;;;;;;;8.23;2.03;;;;;;;;;;5052604;28;20032;-70
2023/01/10 04:07:30;;;;;;;6.05;1.42;;;;;;;;;;5052932;28;20184;-70
2023/01/10 04:09:57;;;;;;;6.18;1.70;;;;;;;;;;5052361;28;20045;-70
2023/01/10 04:12:23;;;;;;;9.40;1.65;;;;;;;;;;5052693;28;20028;-70
2023/01/10 04:14:49;;;;;;;11.85;1.92;;;;;;;;;;5052466;28;20041;-70
2023/01/10 04:17:16;;;;;;;5.90;2.00;;;;;;;;;;5052586;28;20021;-70
2023/01/10 04:19:43;;;;;;;9.68;1.80;;;;;;;;;;5052335;28;20047;-70
2023/01/10 04:22:10;;;;;;;7.22;1.60;;;;;;;;;;5094652;28;20080;-70
2023/01/10 04:24:37;;;;;;;8.38;1.50;;;;;;;;;;5114921;28;20050;-70
2023/01/10 04:27:03;;;;;;;9.93;1.90;;;;;;;;;;5115303;28;20035;-70
2023/01/10 04:29:29;;;;;;;9.05;1.60;;;;;;;;;;5115108;28;20023;-70
2023/01/10 04:31:56;;;;;;;9.27;1.80;;;;;;;;;;5114820;28;20023;-70
2023/01/10 04:34:22;;;;;;;9.65;1.55;;;;;;;;;;5114871;28;20031;-71
2023/01/10 04:36:48;;;;;;;10.70;1.73;;;;;;;;;;5115050;28;20038;-72
2023/01/10 04:39:15;;;;;;;7.45;1.60;;;;;;;;;;5114463;28;20044;-72
2023/01/10 04:41:41;;;;;;;11.10;1.77;;;;;;;;;;5114687;28;20049;-72
2023/01/10 04:44:08;;;;;;;11.40;2.00;;;;;;;;;;5114561;28;20030;-70
2023/01/10 04:46:34;;;;;;;5.53;1.30;;;;;;;;;;5114774;28;20441;-71
2023/01/10 04:49:00;;;;;;;10.32;1.80;;;;;;;;;;5114698;28;20016;-72
2023/01/10 04:51:28;;;;;;;8.43;1.63;;;;;;;;;;5114436;28;20031;-73
2023/01/10 04:53:54;;;;;;;8.43;2.33;;;;;;;;;;5114413;28;20035;-73
2023/01/10 04:56:21;;;;;;;11.70;1.85;;;;;;;;;;5114332;28;20031;-69
2023/01/10 04:58:48;;;;;;;18.15;1.80;;;;;;;;;;5114660;28;20029;-70
2023/01/10 05:01:16;;;;;;;7.18;1.50;;;;;;;;;;5114346;28;20020;-70
2023/01/10 05:03:42;;;;;;;9.75;1.70;;;;;;;;;;5114531;28;20024;-70
2023/01/10 05:06:09;;;;;;;10.10;2.38;;;;;;;;;;5114154;28;20023;-70
2023/01/10 05:08:36;;;;;;;13.10;1.80;;;;;;;;;;5114125;28;20016;-70
2023/01/10 05:11:02;;;;;;;7.15;1.58;;;;;;;;;;5114175;28;20039;-70
2023/01/10 05:13:28;;;;;;;11.68;2.50;;;;;;;;;;5113959;28;20442;-70
2023/01/10 05:15:56;;;;;;;13.05;1.95;;;;;;;;;;5114162;28;20072;-71
2023/01/10 05:18:24;;;;;;;8.93;1.85;;;;;;;;;;5114079;28;20020;-70
2023/01/10 05:20:50;;;;;;;9.98;2.55;;;;;;;;;;5113907;28;20076;-71
2023/01/10 05:23:16;;;;;;;7.57;2.30;;;;;;;;;;5113812;28;20034;-71
2023/01/10 05:25:43;;;;;;;8.80;1.95;;;;;;;;;;5113701;28;20506;-70
2023/01/10 05:28:09;;;;;;;10.15;1.83;;;;;;;;;;5113728;28;20032;-71
2023/01/10 05:30:36;;;;;;;9.18;1.90;;;;;;;;;;5095680;28;20063;-70
2023/01/10 05:33:03;;;;;;;9.68;1.67;;;;;;;;;;5113735;28;20024;-70
2023/01/10 05:35:30;;;;;;;12.32;2.05;;;;;;;;;;5114047;28;20038;-71
2023/01/10 05:37:56;;;;;;;7.32;1.88;;;;;;;;;;5113961;28;20023;-70
2023/01/10 05:40:23;;;;;;;6.88;1.60;;;;;;;;;;5113492;28;20035;-71
2023/01/10 05:42:49;;;;;;;9.07;2.53;;;;;;;;;;5113855;28;20030;-70
2023/01/10 05:45:15;;;;;;;8.45;2.25;;;;;;;;;;5113745;28;20030;-71
2023/01/10 05:47:42;;;;;;;11.40;2.15;;;;;;;;;;5113550;28;20487;-70
2023/01/10 05:50:09;;;;;;;10.82;2.25;;;;;;;;;;5112845;28;20039;-70
2023/01/10 05:52:35;;;;;;;10.95;2.50;;;;;;;;;;5113308;28;20383;-70
2023/01/10 05:55:01;;;;;;;10.27;3.50;;;;;;;;;;5113249;28;20023;-70
2023/01/10 05:57:28;;;;;;;31.52;10.27;;;;;;;;;;5113349;28;20387;-71
2023/01/10 05:59:54;;;;;;;53.70;16.05;;;;;;;;;;5113859;28;20019;-70
2023/01/10 06:02:21;;;;;;;59.38;19.30;;;;;;;;;;5112714;28;20023;-70
2023/01/10 06:04:48;;;;;;;34.88;12.05;;;;;;;;;;5112751;28;20099;-70
2023/01/10 06:07:16;;;;;;;24.70;6.85;;;;;;;;;;5113211;28;20020;-70
2023/01/10 06:09:42;;;;;;;11.95;3.70;;;;;;;;;;5113016;28;20560;-70
2023/01/10 06:12:09;;;;;;;10.68;3.47;;;;;;;;;;5095007;28;20027;-70
2023/01/10 06:14:35;;;;;;;9.38;3.50;;;;;;;;;;5113083;28;20019;-70
2023/01/10 06:17:01;;;;;;;11.40;3.45;;;;;;;;;;5112758;28;20023;-70
2023/01/10 06:19:28;;;;;;;11.05;4.18;;;;;;;;;;5112911;28;20019;-70
2023/01/10 06:21:54;;;;;;;13.48;4.57;;;;;;;;;;5112836;28;20492;-70
2023/01/10 06:24:20;;;;;;;8.15;3.65;;;;;;;;;;5112567;28;20024;-70
2023/01/10 06:26:47;;;;;;;7.13;3.90;;;;;;;;;;5112665;28;20023;-71
2023/01/10 06:29:13;;;;;;;11.25;3.95;;;;;;;;;;5112801;28;20375;-70
2023/01/10 06:31:39;;;;;;;11.40;3.00;;;;;;;;;;5113024;28;20019;-70
2023/01/10 06:34:05;;;;;;;13.93;3.20;;;;;;;;;;5112292;28;20020;-70
2023/01/10 06:36:32;;;;;;;18.55;4.72;;;;;;;;;;5112875;28;20049;-71
2023/01/10 06:38:58;;;;;;;17.05;5.60;;;;;;;;;;5112647;28;20121;-70
2023/01/10 06:41:24;;;;;;;13.60;5.15;;;;;;;;;;5112626;28;20024;-70
2023/01/10 06:43:51;;;;;;;13.90;5.20;;;;;;;;;;5112727;28;20042;-70
2023/01/10 06:46:18;;;;;;;15.52;4.72;;;;;;;;;;5112568;28;20023;-70
2023/01/10 06:48:45;;;;;;;8.05;3.55;;;;;;;;;;5112297;28;20027;-70
2023/01/10 06:51:12;;;;;;;10.10;4.32;;;;;;;;;;5112608;28;20036;-71
2023/01/10 06:53:39;;;;;;;15.30;3.42;;;;;;;;;;5112515;28;20037;-70
2023/01/10 06:56:05;;;;;;;19.92;4.28;;;;;;;;;;5112625;28;20404;-70
2023/01/10 06:58:33;;;;;;;13.23;3.75;;;;;;;;;;5113000;28;20028;-71
2023/01/10 07:00:59;;;;;;;14.20;5.20;;;;;;;;;;5112662;28;20032;-70
2023/01/10 07:03:26;;;;;;;14.77;3.55;;;;;;;;;;5109439;28;20030;-71
2023/01/10 07:05:52;;;;;;;13.70;3.55;;;;;;;;;;5110059;28;20080;-70
2023/01/10 07:08:18;;;;;;;12.13;2.65;;;;;;;;;;5107461;28;20032;-70
2023/01/10 07:10:45;;;;;;;12.48;2.80;;;;;;;;;;5109798;28;20031;-71
2023/01/10 07:13:11;;;;;;;7.63;2.10;;;;;;;;;;5111967;28;20031;-70
2023/01/10 07:15:37;;;;;;;7.25;1.95;;;;;;;;;;5108951;28;20031;-70
2023/01/10 07:18:04;;;;;;;11.55;3.00;;;;;;;;;;5109939;28;20015;-72
2023/01/10 07:20:30;;;;;;;8.15;2.50;;;;;;;;;;5112032;28;20035;-73
2023/01/10 07:23:00;;;;;;;15.93;3.00;;;;;;;;;;5109999;28;20085;-73
2023/01/10 07:25:27;;;;;;;10.80;3.15;;;;;;;;;;5111755;28;20229;-73
2023/01/10 07:27:57;;;;;;;9.68;3.20;;;;;;;;;;5110862;28;20016;-73
2023/01/10 07:30:24;;;;;;;7.15;2.67;;;;;;;;;;5109037;28;20686;-71
2023/01/10 07:32:57;;;;;;;11.10;3.05;;;;;;;;;;5106304;28;20016;-71
2023/01/10 07:35:24;;;;;;;10.88;3.00;;;;;;;;;;5106171;28;20019;-71
2023/01/10 07:37:50;;;;;;;12.45;3.28;;;;;;;;;;5105321;28;20383;-71
2023/01/10 07:40:17;;;;;;;10.52;3.85;;;;;;;;;;5111150;28;20108;-71
2023/01/10 07:42:43;;;;;;;9.23;3.60;;;;;;;;;;5115053;28;20027;-71
2023/01/10 07:45:10;;;;;;;9.27;4.55;;;;;;;;;;5115384;28;20027;-70
2023/01/10 07:47:36;;;;;;;17.92;5.65;;;;;;;;;;5114887;28;20406;-70
2023/01/10 07:50:03;;;;;;;15.88;5.70;;;;;;;;;;5114465;28;20034;-72
2023/01/10 07:52:29;;;;;;;14.23;5.50;;;;;;;;;;5112888;27;20414;-71
2023/01/10 07:54:55;;;;;;;16.17;6.00;;;;;;;;;;5111042;28;20027;-71
2023/01/10 07:57:22;;;;;;;13.80;4.68;;;;;;;;;;5112057;28;20027;-71
2023/01/10 07:59:48;;;;;;;10.60;3.70;;;;;;;;;;5114504;28;20024;-70
2023/01/10 08:02:14;;;;;;;11.25;4.15;;;;;;;;;;5109857;28;20020;-71
2023/01/10 08:04:40;;;;;;;9.93;3.47;;;;;;;;;;5111514;28;20026;-71
2023/01/10 08:07:07;;;;;;;11.57;2.92;;;;;;;;;;5114323;28;20077;-71
2023/01/10 08:09:33;;;;;;;7.82;2.50;;;;;;;;;;5113662;28;20027;-70
2023/01/10 08:11:59;;;;;;;16.33;3.70;;;;;;;;;;5112041;28;20392;-71
2023/01/10 08:14:26;;;;;;;11.13;3.88;;;;;;;;;;5111526;28;20036;-70
2023/01/10 08:16:52;;;;;;;7.85;3.05;;;;;;;;;;5099867;28;20020;-70
2023/01/10 08:19:18;;;;;;;11.85;3.53;;;;;;;;;;5110713;27;20023;-70
2023/01/10 08:21:44;;;;;;;12.32;3.47;;;;;;;;;;5112560;28;20024;-70
2023/01/10 08:24:11;;;;;;;12.75;3.83;;;;;;;;;;5112876;28;20044;-70
2023/01/10 08:26:37;;;;;;;14.65;3.72;;;;;;;;;;5100317;27;20024;-70
2023/01/10 08:29:04;;;;;;;14.95;4.20;;;;;;;;;;5113767;28;20034;-70
2023/01/10 08:31:30;;;;;;;16.23;4.97;;;;;;;;;;5106568;28;20850;-70
2023/01/10 08:33:56;;;;;;;19.42;6.03;;;;;;;;;;5115037;27;20008;-70
2023/01/10 08:36:24;;;;;;;18.80;5.35;;;;;;;;;;5110344;28;20031;-70
2023/01/10 08:38:50;;;;;;;15.40;5.70;;;;;;;;;;5112089;28;20030;-71
2023/01/10 08:41:17;;;;;;;15.15;5.40;;;;;;;;;;5111010;28;20042;-71
2023/01/10 08:43:43;;;;;;;16.77;4.32;;;;;;;;;;5110608;28;20411;-70
2023/01/10 08:46:09;;;;;;;14.73;3.75;;;;;;;;;;5094001;28;20020;-70
2023/01/10 08:48:35;;;;;;;7.90;3.25;;;;;;;;;;5112463;28;20019;-70
2023/01/10 08:51:11;;;;;;;14.45;3.50;;;;;;;;;;5111206;28;20030;-70
2023/01/10 08:53:40;;;;;;;8.63;2.45;;;;;;;;;;5109736;28;20097;-70
2023/01/10 08:56:07;;;;;;;12.32;2.92;;;;;;;;;;5093673;28;20044;-70
2023/01/10 08:58:34;;;;;;;9.02;2.50;;;;;;;;;;5111713;28;20049;-69
2023/01/10 09:01:03;;;;;;;9.23;1.95;;;;;;;;;;5112354;28;20038;-70
2023/01/10 09:03:29;;;;;;;8.48;2.30;;;;;;;;;;5101256;27;20395;-71
2023/01/10 09:05:58;;;;;;;7.53;2.50;;;;;;;;;;5112309;28;20024;-71
2023/01/10 09:08:24;;;;;;;6.38;2.03;;;;;;;;;;5112228;28;20031;-71
2023/01/10 09:10:51;;;;;;;5.78;2.30;;;;;;;;;;5121030;27;20035;-70
2023/01/10 09:13:17;;;;;;;8.82;2.17;;;;;;;;;;5132708;27;20023;-69
2023/01/10 09:15:43;;;;;;;5.80;2.10;;;;;;;;;;5133019;27;20015;-69
2023/01/10 09:18:11;;;;;;;10.48;2.45;;;;;;;;;;5132541;27;20022;-69
2023/01/10 09:20:38;;;;;;;9.98;2.38;;;;;;;;;;5132747;27;20455;-69
2023/01/10 09:23:07;;;;;;;8.30;2.35;;;;;;;;;;5132627;27;20022;-68
2023/01/10 09:25:33;;;;;;;54.13;24.88;;;;;;;;;;5120979;27;20418;-69
2023/01/10 09:28:00;;;;;;;19.45;5.80;;;;;;;;;;5111677;28;20484;-69
2023/01/10 09:30:28;;;;;;;8.60;3.05;;;;;;;;;;5112040;28;20543;-69
2023/01/10 09:32:55;;;;;;;18.83;7.80;;;;;;;;;;5112104;28;20068;-68
2023/01/10 09:35:22;;;;;;;11.75;3.47;;;;;;;;;;5111732;28;20027;-68
2023/01/10 09:37:49;;;;;;;9.05;3.08;;;;;;;;;;5112195;28;20034;-68
2023/01/10 09:40:16;;;;;;;6.63;2.17;;;;;;;;;;5111299;28;20427;-69
2023/01/10 09:42:43;;;;;;;10.95;2.50;;;;;;;;;;5111430;28;20024;-68
2023/01/10 09:45:30;;;;;;;8.60;2.38;;;;;;;;;;5111237;28;20020;-69
2023/01/10 09:48:05;;;;;;;8.88;2.10;;;;;;;;;;5111121;28;20379;-69
2023/01/10 09:50:35;;;;;;;13.43;2.58;;;;;;;;;;5111353;28;20047;-69
2023/01/10 09:53:08;;;;;;;11.60;2.50;;;;;;;;;;5110148;28;20032;-69
2023/01/10 09:55:36;;;;;;;10.60;3.85;;;;;;;;;;5111239;28;20400;-69
2023/01/10 09:58:09;;;;;;;9.10;2.72;;;;;;;;;;5110792;28;20023;-70
2023/01/10 10:00:39;;;;;;;7.18;2.00;;;;;;;;;;5111128;28;20016;-69
2023/01/10 10:03:12;;;;;;;7.90;2.13;;;;;;;;;;5111292;28;20027;-70
2023/01/10 10:05:39;;;;;;;7.57;2.65;;;;;;;;;;5111293;28;20023;-69
2023/01/10 10:08:09;;;;;;;4.65;1.92;;;;;;;;;;5111184;28;20031;-69
2023/01/10 10:10:40;;;;;;;7.05;2.10;;;;;;;;;;5117159;27;20083;-69
2023/01/10 10:13:09;;;;;;;5.30;1.48;;;;;;;;;;5113748;27;20498;-70
2023/01/10 10:15:54;;;;;;;8.13;1.98;;;;;;;;;;5110824;28;20431;-69
2023/01/10 10:18:23;;;;;;;11.00;3.20;;;;;;;;;;5110682;28;20033;-70
2023/01/10 10:20:50;;;;;;;11.48;2.80;;;;;;;;;;5110837;28;20023;-69
2023/01/10 10:23:19;;;;;;;10.15;2.35;;;;;;;;;;5110952;28;20245;-70
2023/01/10 10:25:48;;;;;;;8.07;2.03;;;;;;;;;;5110184;28;20011;-69
2023/01/10 10:28:14;;;;;;;8.88;2.10;;;;;;;;;;5110716;28;20036;-69
2023/01/10 10:30:42;;;;;;;8.38;1.83;;;;;;;;;;5110668;28;20053;-69
2023/01/10 10:33:14;;;;;;;10.60;2.40;;;;;;;;;;5111084;28;20020;-69
2023/01/10 10:35:42;;;;;;;10.10;2.30;;;;;;;;;;5110540;28;20411;-69
2023/01/10 10:38:21;;;;;;;7.10;2.42;;;;;;;;;;5095278;28;20061;-69
2023/01/10 10:40:48;;;;;;;8.45;2.00;;;;;;;;;;5098857;28;20533;-69
2023/01/10 10:43:20;;;;;;;7.65;2.00;;;;;;;;;;5110007;28;20525;-69
2023/01/10 10:45:49;;;;;;;11.75;1.95;;;;;;;;;;5110654;28;20026;-69
2023/01/10 10:48:15;;;;;;;19.83;6.78;;;;;;;;;;5102633;28;20028;-70
2023/01/10 10:50:58;;;;;;;12.27;5.10;;;;;;;;;;5109231;28;20027;-69
2023/01/10 10:53:24;;;;;;;14.98;5.07;;;;;;;;;;5110208;28;20481;-69
2023/01/10 10:55:51;;;;;;;9.30;2.65;;;;;;;;;;5110143;28;20023;-70
2023/01/10 10:58:17;;;;;;;10.95;3.95;;;;;;;;;;5109899;28;20084;-69
2023/01/10 11:00:45;;;;;;;15.77;3.05;;;;;;;;;;5110224;28;20031;-69
2023/01/10 11:03:14;;;;;;;6.07;1.65;;;;;;;;;;5092155;28;20031;-69
2023/01/10 11:05:41;;;;;;;11.02;2.20;;;;;;;;;;5113835;28;20028;-70
2023/01/10 11:08:11;;;;;;;16.75;2.95;;;;;;;;;;5114077;28;20020;-68
2023/01/10 11:10:38;;;;;;;9.50;1.83;;;;;;;;;;5120692;27;20039;-69
2023/01/10 11:13:23;;;;;;;13.05;3.70;;;;;;;;;;5134784;27;20023;-69
2023/01/10 11:15:50;;;;;;;12.05;3.78;;;;;;;;;;5134955;27;20031;-71
2023/01/10 11:18:16;;;;;;;11.63;3.03;;;;;;;;;;5135222;27;20027;-70
2023/01/10 11:20:56;;;;;;;28.20;9.48;;;;;;;;;;5135013;27;20015;-71
2023/01/10 11:23:41;;;;;;;7.03;2.13;;;;;;;;;;5134749;27;20023;-71
2023/01/10 11:26:23;;;;;;;7.20;1.80;;;;;;;;;;5120067;27;20024;-71
2023/01/10 11:28:51;;;;;;;9.57;2.50;;;;;;;;;;5094311;28;20030;-71
2023/01/10 11:31:28;;;;;;;11.40;2.92;;;;;;;;;;5093902;28;20046;-71
2023/01/10 11:33:54;;;;;;;9.27;2.25;;;;;;;;;;5093767;28;20027;-72
2023/01/10 11:36:21;;;;;;;14.20;5.63;;;;;;;;;;5093615;28;20200;-71
2023/01/10 11:38:59;;;;;;;27.02;7.63;;;;;;;;;;5093867;28;20112;-71
2023/01/10 11:41:33;;;;;;;11.35;3.40;;;;;;;;;;5094164;28;20042;-70
2023/01/10 11:44:25;;;;;;;19.63;6.78;;;;;;;;;;5094249;28;20484;-71
2023/01/10 11:46:57;;;;;;;21.45;4.55;;;;;;;;;;5091527;28;20446;-70
2023/01/10 11:49:32;;;;;;;17.80;2.53;;;;;;;;;;5094007;28;20028;-70
2023/01/10 11:52:02;;;;;;;9.73;2.83;;;;;;;;;;5094225;28;20109;-70
2023/01/10 11:54:29;;;;;;;7.40;2.35;;;;;;;;;;5093537;28;20036;-70
2023/01/10 11:57:02;;;;;;;9.63;2.47;;;;;;;;;;5093899;28;20484;-71
2023/01/10 11:59:28;;;;;;;19.00;2.65;;;;;;;;;;5093965;28;20062;-70
2023/01/10 12:02:04;;;;;;;11.02;2.38;;;;;;;;;;5093687;28;20028;-70
2023/01/10 12:04:39;;;;;;;10.40;2.30;;;;;;;;;;5094111;28;20024;-70
2023/01/10 12:07:09;;;;;;;14.15;2.83;;;;;;;;;;5094027;28;20032;-70
2023/01/10 12:09:44;;;;;;;15.93;3.08;;;;;;;;;;5094349;28;20034;-69
2023/01/10 12:12:19;;;;;;;13.18;3.33;;;;;;;;;;5114355;28;20043;-70
2023/01/10 12:14:46;;;;;;;9.98;2.78;;;;;;;;;;5114240;28;20026;-70
2023/01/10 12:17:23;;;;;;;11.02;2.85;;;;;;;;;;5115241;28;20027;-70
2023/01/10 12:19:54;;;;;;;14.63;3.63;;;;;;;;;;5115487;28;20023;-70
2023/01/10 12:22:20;;;;;;;;;;;;;;;;;;5112805;27;20019;-71
2023/01/10 12:24:47;;;;;;;14.77;2.50;;;;;;;;;;5114266;28;19904;-71
2023/01/10 12:27:15;;;;;;;14.52;2.88;;;;;;;;;;5114479;28;20498;-70
2023/01/10 12:29:47;;;;;;;17.52;2.97;;;;;;;;;;5114438;28;20556;-70
2023/01/10 12:32:17;;;;;;;18.15;2.67;;;;;;;;;;5114399;28;20028;-70
2023/01/10 12:34:49;;;;;;;12.63;2.92;;;;;;;;;;5115051;28;20020;-70
2023/01/10 12:37:23;;;;;;;18.23;3.38;;;;;;;;;;5111737;28;20499;-69
2023/01/10 12:39:54;;;;;;;14.70;3.30;;;;;;;;;;5113740;28;20044;-70
2023/01/10 12:45:26;;;;;;;16.10;3.58;;;;;;;;;;5111911;28;20026;-71
2023/01/10 12:47:59;;;;;;;14.18;2.88;;;;;;;;;;5111146;28;20027;-70
2023/01/10 12:50:31;;;;;;;12.32;3.10;;;;;;;;;;5113681;28;20583;-70
2023/01/10 12:53:04;;;;;;;15.98;2.33;;;;;;;;;;5114043;28;20026;-70
2023/01/10 12:55:37;;;;;;;13.80;3.05;;;;;;;;;;5096007;28;20028;-70
2023/01/10 12:58:04;;;;;;;14.60;2.53;;;;;;;;;;5114192;28;20023;-70
2023/01/10 13:00:39;;;;;;;13.75;2.88;;;;;;;;;;5113387;28;20044;-70
2023/01/10 13:03:11;;;;;;;13.07;2.72;;;;;;;;;;5112766;28;20019;-71
2023/01/10 13:05:37;;;;;;;16.92;3.15;;;;;;;;;;5113366;28;20035;-70
2023/01/10 13:08:10;;;;;;;12.15;2.97;;;;;;;;;;5112793;28;20034;-71
2023/01/10 13:10:39;;;;;;;17.85;4.22;;;;;;;;;;5113365;28;20023;-71
2023/01/10 13:13:10;;;;;;;16.08;3.40;;;;;;;;;;5112852;28;20019;-70
2023/01/10 13:15:36;;;;;;;;;;;;;;;;;;5113948;28;20038;-70
2023/01/10 13:18:05;;;;;;;19.58;3.40;;;;;;;;;;5112565;28;20269;-70
2023/01/10 13:20:41;;;;;;;19.10;3.80;;;;;;;;;;5098118;28;20024;-73
2023/01/10 13:23:34;;;;;;;21.90;6.35;;;;;;;;;;5111781;28;20036;-70
2023/01/10 13:26:07;;;;;;;21.52;5.80;;;;;;;;;;5033975;28;20033;-71
2023/01/10 13:28:35;;;;;;;16.20;5.80;;;;;;;;;;5049009;28;20025;-71
2023/01/10 13:31:21;;;;;;;20.63;4.63;;;;;;;;;;5046649;28;20041;-70
2023/01/10 13:33:59;;;;;;;21.05;5.20;;;;;;;;;;5042280;28;20544;-70
2023/01/10 13:36:27;;;;;;;17.58;4.20;;;;;;;;;;5036572;28;20045;-71
2023/01/10 13:38:56;;;;;;;20.48;3.47;;;;;;;;;;5050197;28;20032;-71
2023/01/10 13:44:09;;;;;;;23.50;5.50;;;;;;;;;;5030039;28;20036;-70
2023/01/10 13:46:37;;;;;;;20.70;5.80;;;;;;;;;;5013966;28;20025;-70
2023/01/10 13:49:09;;;;;;;19.10;6.30;;;;;;;;;;5029644;28;20501;-70
2023/01/10 13:51:36;;;;;;;18.20;5.50;;;;;;;;;;5029855;28;20049;-71
2023/01/10 13:54:04;;;;;;;20.63;6.13;;;;;;;;;;5043640;28;20419;-71
2023/01/10 13:56:30;;;;;;;17.70;5.97;;;;;;;;;;5049809;28;20083;-71
2023/01/10 14:04:33;;;;;;;31.33;7.90;;;;;;;;;;5112157;28;20023;-70
2023/01/10 14:06:59;;;;;;;21.25;5.40;;;;;;;;;;5094413;28;20028;-70
2023/01/10 14:09:32;;;;;;;22.83;4.95;;;;;;;;;;5112666;28;20023;-71
2023/01/10 14:11:59;;;;;;;16.25;4.20;;;;;;;;;;5111726;28;20043;-71
2023/01/10 14:14:39;;;;;;;18.08;5.10;;;;;;;;;;5112600;28;20780;-70
2023/01/10 14:17:18;;;;;;;19.55;4.63;;;;;;;;;;5112434;28;20075;-70
2023/01/10 14:19:46;;;;;;;14.43;3.95;;;;;;;;;;5112165;28;20030;-70
2023/01/10 14:22:24;;;;;;;21.23;4.82;;;;;;;;;;5112275;28;20032;-71
2023/01/10 14:24:51;;;;;;;26.52;5.30;;;;;;;;;;5111997;28;20585;-70
2023/01/10 14:27:19;;;;;;;22.25;5.50;;;;;;;;;;5112143;28;20031;-71
2023/01/10 14:29:48;;;;;;;17.27;5.50;;;;;;;;;;5112348;28;20019;-70
2023/01/10 14:32:25;;;;;;;22.35;5.43;;;;;;;;;;5111532;28;20041;-70
2023/01/10 14:34:52;;;;;;;19.60;5.13;;;;;;;;;;5111890;28;20026;-70
2023/01/10 14:37:28;;;;;;;22.35;5.18;;;;;;;;;;5112061;28;20391;-70
2023/01/10 14:39:55;;;;;;;18.55;4.60;;;;;;;;;;5111535;28;20043;-70
2023/01/10 14:42:22;;;;;;;20.23;4.45;;;;;;;;;;5111878;28;20399;-71
2023/01/10 14:45:01;;;;;;;16.73;4.45;;;;;;;;;;5111654;28;20469;-70
2023/01/10 14:47:30;;;;;;;16.42;4.45;;;;;;;;;;5109262;28;20038;-69
2023/01/10 14:50:01;;;;;;;19.50;4.63;;;;;;;;;;5111403;28;20020;-70
2023/01/10 14:52:28;;;;;;;23.55;5.40;;;;;;;;;;5111728;28;20057;-70
2023/01/10 14:55:02;;;;;;;24.23;7.10;;;;;;;;;;5111833;28;20023;-71
2023/01/10 14:57:29;;;;;;;20.48;5.55;;;;;;;;;;5112041;28;20034;-70
2023/01/10 15:00:06;;;;;;;34.00;8.57;;;;;;;;;;5111995;28;20027;-70
2023/01/10 15:02:32;;;;;;;25.33;5.35;;;;;;;;;;5110850;28;20011;-71